sensor_id;sensor_type;location;lat;lon;timestamp;P1;durP1;ratioP1;P2;durP2;ratioP2
55800;SDS011;41730;51.960;20.158;2023-02-20T00:00:43;8.40;;;3.40;;
55800;SDS011;41730;51.960;20.158;2023-02-20T00:03:16;6.50;;;2.90;;
55800;SDS011;41730;51.960;20.158;2023-02-20T00:05:48;7.70;;;3.00;;
55800;SDS011;41730;51.960;20.158;2023-02-20T00:08:20;7.50;;;3.00;;
55800;SDS011;41730;51.960;20.158;2023-02-20T00:10:52;7.20;;;2.60;;
55800;SDS011;41730;51.960;20.158;2023-02-20T00:13:25;8.00;;;3.00;;
55800;SDS011;41730;51.960;20.158;2023-02-20T00:15:57;8.90;;;2.50;;
55800;SDS011;41730;51.960;20.158;2023-02-20T00:18:29;8.10;;;3.00;;
55800;SDS011;41730;51.960;20.158;2023-02-20T00:21:02;6.90;;;2.90;;
55800;SDS011;41730;51.960;20.158;2023-02-20T00:23:36;8.10;;;3.00;;
55800;SDS011;41730;51.960;20.158;2023-02-20T00:26:09;8.70;;;3.30;;
55800;SDS011;41730;51.960;20.158;2023-02-20T00:28:43;9.10;;;2.70;;
55800;SDS011;41730;51.960;20.158;2023-02-20T00:31:15;6.20;;;2.70;;
55800;SDS011;41730;51.960;20.158;2023-02-20T00:33:49;7.40;;;2.40;;
55800;SDS011;41730;51.960;20.158;2023-02-20T00:36:21;6.90;;;2.40;;
55800;SDS011;41730;51.960;20.158;2023-02-20T00:38:53;8.00;;;2.90;;
55800;SDS011;41730;51.960;20.158;2023-02-20T00:41:25;8.00;;;3.10;;
55800;SDS011;41730;51.960;20.158;2023-02-20T00:43:57;8.30;;;3.00;;
55800;SDS011;41730;51.960;20.158;2023-02-20T00:46:28;8.30;;;3.00;;
55800;SDS011;41730;51.960;20.158;2023-02-20T00:49:01;8.20;;;2.70;;
55800;SDS011;41730;51.960;20.158;2023-02-20T00:51:33;6.10;;;2.80;;
55800;SDS011;41730;51.960;20.158;2023-02-20T00:54:06;6.60;;;2.70;;
55800;SDS011;41730;51.960;20.158;2023-02-20T00:56:38;9.30;;;3.00;;
55800;SDS011;41730;51.960;20.158;2023-02-20T00:59:10;7.20;;;2.50;;
55800;SDS011;41730;51.960;20.158;2023-02-20T01:01:42;7.30;;;2.30;;
55800;SDS011;41730;51.960;20.158;2023-02-20T01:04:14;7.30;;;2.30;;
55800;SDS011;41730;51.960;20.158;2023-02-20T01:06:47;7.30;;;2.50;;
55800;SDS011;41730;51.960;20.158;2023-02-20T01:09:20;4.70;;;2.60;;
55800;SDS011;41730;51.960;20.158;2023-02-20T01:11:53;6.60;;;2.30;;
55800;SDS011;41730;51.960;20.158;2023-02-20T01:14:25;5.50;;;2.40;;
55800;SDS011;41730;51.960;20.158;2023-02-20T01:16:57;6.60;;;2.10;;
55800;SDS011;41730;51.960;20.158;2023-02-20T01:19:29;6.50;;;2.20;;
55800;SDS011;41730;51.960;20.158;2023-02-20T01:22:01;8.40;;;2.70;;
55800;SDS011;41730;51.960;20.158;2023-02-20T01:27:06;5.00;;;2.90;;
55800;SDS011;41730;51.960;20.158;2023-02-20T01:29:38;6.70;;;2.40;;
55800;SDS011;41730;51.960;20.158;2023-02-20T01:32:10;4.90;;;1.70;;
55800;SDS011;41730;51.960;20.158;2023-02-20T01:34:43;6.40;;;2.10;;
55800;SDS011;41730;51.960;20.158;2023-02-20T01:37:15;8.10;;;2.60;;
55800;SDS011;41730;51.960;20.158;2023-02-20T01:39:48;3.70;;;1.90;;
55800;SDS011;41730;51.960;20.158;2023-02-20T01:42:20;6.90;;;2.60;;
55800;SDS011;41730;51.960;20.158;2023-02-20T01:44:53;7.50;;;2.10;;
55800;SDS011;41730;51.960;20.158;2023-02-20T01:47:39;5.20;;;2.10;;
55800;SDS011;41730;51.960;20.158;2023-02-20T01:50:12;5.90;;;2.30;;
55800;SDS011;41730;51.960;20.158;2023-02-20T01:52:46;7.40;;;2.40;;
55800;SDS011;41730;51.960;20.158;2023-02-20T01:55:22;7.30;;;2.40;;
55800;SDS011;41730;51.960;20.158;2023-02-20T01:57:58;6.10;;;2.20;;
55800;SDS011;41730;51.960;20.158;2023-02-20T02:00:35;5.20;;;2.20;;
55800;SDS011;41730;51.960;20.158;2023-02-20T02:03:08;6.80;;;2.10;;
55800;SDS011;41730;51.960;20.158;2023-02-20T02:05:42;4.30;;;1.70;;
55800;SDS011;41730;51.960;20.158;2023-02-20T02:08:16;6.00;;;1.70;;
55800;SDS011;41730;51.960;20.158;2023-02-20T02:10:52;8.50;;;1.90;;
55800;SDS011;41730;51.960;20.158;2023-02-20T02:13:33;5.50;;;1.70;;
55800;SDS011;41730;51.960;20.158;2023-02-20T02:16:10;6.80;;;1.90;;
55800;SDS011;41730;51.960;20.158;2023-02-20T02:18:53;5.50;;;2.00;;
55800;SDS011;41730;51.960;20.158;2023-02-20T02:21:35;3.80;;;1.60;;
55800;SDS011;41730;51.960;20.158;2023-02-20T02:24:37;6.10;;;2.10;;
55800;SDS011;41730;51.960;20.158;2023-02-20T02:36:57;4.20;;;2.10;;
55800;SDS011;41730;51.960;20.158;2023-02-20T02:39:40;5.10;;;2.00;;
55800;SDS011;41730;51.960;20.158;2023-02-20T02:42:19;4.40;;;1.90;;
55800;SDS011;41730;51.960;20.158;2023-02-20T02:45:00;3.70;;;1.70;;
55800;SDS011;41730;51.960;20.158;2023-02-20T02:47:40;5.90;;;1.50;;
55800;SDS011;41730;51.960;20.158;2023-02-20T02:50:17;4.40;;;1.60;;
55800;SDS011;41730;51.960;20.158;2023-02-20T02:52:53;3.90;;;1.60;;
55800;SDS011;41730;51.960;20.158;2023-02-20T02:55:26;4.70;;;1.80;;
55800;SDS011;41730;51.960;20.158;2023-02-20T02:58:01;4.20;;;1.60;;
55800;SDS011;41730;51.960;20.158;2023-02-20T03:00:34;3.20;;;1.80;;
55800;SDS011;41730;51.960;20.158;2023-02-20T03:03:09;6.10;;;1.50;;
55800;SDS011;41730;51.960;20.158;2023-02-20T03:05:45;4.10;;;1.60;;
55800;SDS011;41730;51.960;20.158;2023-02-20T03:08:25;5.30;;;1.60;;
55800;SDS011;41730;51.960;20.158;2023-02-20T03:11:05;4.40;;;1.60;;
55800;SDS011;41730;51.960;20.158;2023-02-20T03:13:41;6.10;;;1.90;;
55800;SDS011;41730;51.960;20.158;2023-02-20T03:16:37;7.20;;;1.60;;
55800;SDS011;41730;51.960;20.158;2023-02-20T03:19:16;6.10;;;1.70;;
55800;SDS011;41730;51.960;20.158;2023-02-20T03:21:54;5.90;;;1.90;;
55800;SDS011;41730;51.960;20.158;2023-02-20T03:24:27;4.70;;;1.80;;
55800;SDS011;41730;51.960;20.158;2023-02-20T03:27:23;3.90;;;1.70;;
55800;SDS011;41730;51.960;20.158;2023-02-20T03:30:08;6.20;;;1.80;;
55800;SDS011;41730;51.960;20.158;2023-02-20T03:32:45;7.10;;;1.80;;
55800;SDS011;41730;51.960;20.158;2023-02-20T03:35:38;5.10;;;1.70;;
55800;SDS011;41730;51.960;20.158;2023-02-20T03:38:30;3.50;;;1.50;;
55800;SDS011;41730;51.960;20.158;2023-02-20T03:41:23;4.50;;;1.70;;
55800;SDS011;41730;51.960;20.158;2023-02-20T03:44:15;5.60;;;2.00;;
55800;SDS011;41730;51.960;20.158;2023-02-20T03:46:49;4.90;;;1.80;;
55800;SDS011;41730;51.960;20.158;2023-02-20T03:49:26;8.20;;;2.10;;
55800;SDS011;41730;51.960;20.158;2023-02-20T03:52:18;4.30;;;1.60;;
55800;SDS011;41730;51.960;20.158;2023-02-20T03:54:51;5.30;;;2.00;;
55800;SDS011;41730;51.960;20.158;2023-02-20T03:57:24;4.90;;;1.70;;
55800;SDS011;41730;51.960;20.158;2023-02-20T04:00:00;9.60;;;2.00;;
55800;SDS011;41730;51.960;20.158;2023-02-20T04:02:37;5.50;;;1.90;;
55800;SDS011;41730;51.960;20.158;2023-02-20T04:05:12;6.70;;;2.50;;
55800;SDS011;41730;51.960;20.158;2023-02-20T04:07:48;4.90;;;2.50;;
55800;SDS011;41730;51.960;20.158;2023-02-20T04:10:25;4.60;;;2.30;;
55800;SDS011;41730;51.960;20.158;2023-02-20T04:13:00;9.00;;;3.10;;
55800;SDS011;41730;51.960;20.158;2023-02-20T04:15:34;7.30;;;2.40;;
55800;SDS011;41730;51.960;20.158;2023-02-20T04:18:07;6.80;;;2.70;;
55800;SDS011;41730;51.960;20.158;2023-02-20T04:20:41;7.30;;;2.80;;
55800;SDS011;41730;51.960;20.158;2023-02-20T04:23:14;6.80;;;2.70;;
55800;SDS011;41730;51.960;20.158;2023-02-20T04:25:50;6.40;;;2.80;;
55800;SDS011;41730;51.960;20.158;2023-02-20T04:28:27;8.70;;;2.90;;
55800;SDS011;41730;51.960;20.158;2023-02-20T04:31:05;7.40;;;2.70;;
55800;SDS011;41730;51.960;20.158;2023-02-20T04:33:42;5.80;;;2.80;;
55800;SDS011;41730;51.960;20.158;2023-02-20T04:36:14;11.30;;;2.60;;
55800;SDS011;41730;51.960;20.158;2023-02-20T04:38:46;9.00;;;2.80;;
55800;SDS011;41730;51.960;20.158;2023-02-20T04:41:19;7.10;;;2.80;;
55800;SDS011;41730;51.960;20.158;2023-02-20T04:43:51;10.40;;;3.00;;
55800;SDS011;41730;51.960;20.158;2023-02-20T04:46:43;11.00;;;3.30;;
55800;SDS011;41730;51.960;20.158;2023-02-20T04:49:16;8.40;;;2.90;;
55800;SDS011;41730;51.960;20.158;2023-02-20T04:51:49;8.00;;;2.80;;
55800;SDS011;41730;51.960;20.158;2023-02-20T04:54:21;6.60;;;2.70;;
55800;SDS011;41730;51.960;20.158;2023-02-20T04:56:54;10.90;;;3.00;;
55800;SDS011;41730;51.960;20.158;2023-02-20T04:59:26;5.70;;;2.30;;
55800;SDS011;41730;51.960;20.158;2023-02-20T05:01:58;6.60;;;2.40;;
55800;SDS011;41730;51.960;20.158;2023-02-20T05:04:30;11.50;;;3.10;;
55800;SDS011;41730;51.960;20.158;2023-02-20T05:07:03;8.30;;;3.00;;
55800;SDS011;41730;51.960;20.158;2023-02-20T05:09:36;8.20;;;2.60;;
55800;SDS011;41730;51.960;20.158;2023-02-20T05:12:11;9.40;;;3.10;;
55800;SDS011;41730;51.960;20.158;2023-02-20T05:14:43;6.50;;;3.00;;
55800;SDS011;41730;51.960;20.158;2023-02-20T05:17:15;6.70;;;3.00;;
55800;SDS011;41730;51.960;20.158;2023-02-20T05:19:47;10.30;;;3.50;;
55800;SDS011;41730;51.960;20.158;2023-02-20T05:22:19;8.10;;;3.50;;
55800;SDS011;41730;51.960;20.158;2023-02-20T05:24:51;6.70;;;2.80;;
55800;SDS011;41730;51.960;20.158;2023-02-20T05:27:23;7.10;;;3.40;;
55800;SDS011;41730;51.960;20.158;2023-02-20T05:29:57;7.80;;;3.10;;
55800;SDS011;41730;51.960;20.158;2023-02-20T05:32:29;10.00;;;3.00;;
55800;SDS011;41730;51.960;20.158;2023-02-20T05:35:02;8.80;;;3.50;;
55800;SDS011;41730;51.960;20.158;2023-02-20T05:37:35;9.10;;;3.80;;
55800;SDS011;41730;51.960;20.158;2023-02-20T05:40:09;8.90;;;3.30;;
55800;SDS011;41730;51.960;20.158;2023-02-20T05:42:41;8.70;;;3.30;;
55800;SDS011;41730;51.960;20.158;2023-02-20T05:45:14;7.40;;;3.40;;
55800;SDS011;41730;51.960;20.158;2023-02-20T05:47:47;11.30;;;3.90;;
55800;SDS011;41730;51.960;20.158;2023-02-20T05:50:20;9.50;;;3.80;;
55800;SDS011;41730;51.960;20.158;2023-02-20T05:52:52;8.70;;;3.10;;
55800;SDS011;41730;51.960;20.158;2023-02-20T05:55:24;11.10;;;4.10;;
55800;SDS011;41730;51.960;20.158;2023-02-20T05:57:56;9.60;;;3.90;;
55800;SDS011;41730;51.960;20.158;2023-02-20T06:00:28;11.40;;;3.50;;
55800;SDS011;41730;51.960;20.158;2023-02-20T06:03:00;11.20;;;3.20;;
55800;SDS011;41730;51.960;20.158;2023-02-20T06:05:36;11.10;;;3.80;;
55800;SDS011;41730;51.960;20.158;2023-02-20T06:08:09;8.70;;;3.20;;
55800;SDS011;41730;51.960;20.158;2023-02-20T06:10:41;7.20;;;3.30;;
55800;SDS011;41730;51.960;20.158;2023-02-20T06:13:13;10.10;;;3.40;;
55800;SDS011;41730;51.960;20.158;2023-02-20T06:15:45;6.80;;;2.90;;
55800;SDS011;41730;51.960;20.158;2023-02-20T06:18:17;6.40;;;2.90;;
55800;SDS011;41730;51.960;20.158;2023-02-20T06:20:49;5.80;;;2.50;;
55800;SDS011;41730;51.960;20.158;2023-02-20T06:23:22;6.20;;;2.80;;
55800;SDS011;41730;51.960;20.158;2023-02-20T06:25:53;9.20;;;3.30;;
55800;SDS011;41730;51.960;20.158;2023-02-20T06:28:26;15.50;;;4.00;;
55800;SDS011;41730;51.960;20.158;2023-02-20T06:30:58;7.10;;;3.10;;
55800;SDS011;41730;51.960;20.158;2023-02-20T06:33:30;11.60;;;3.00;;
55800;SDS011;41730;51.960;20.158;2023-02-20T06:36:02;8.50;;;2.60;;
55800;SDS011;41730;51.960;20.158;2023-02-20T06:38:35;6.30;;;2.60;;
55800;SDS011;41730;51.960;20.158;2023-02-20T06:41:07;7.10;;;2.90;;
55800;SDS011;41730;51.960;20.158;2023-02-20T06:43:39;5.40;;;2.40;;
55800;SDS011;41730;51.960;20.158;2023-02-20T06:46:11;6.20;;;2.50;;
55800;SDS011;41730;51.960;20.158;2023-02-20T06:48:47;7.00;;;2.60;;
55800;SDS011;41730;51.960;20.158;2023-02-20T06:51:21;8.10;;;2.50;;
55800;SDS011;41730;51.960;20.158;2023-02-20T06:53:56;7.90;;;2.30;;
55800;SDS011;41730;51.960;20.158;2023-02-20T06:56:29;8.10;;;2.50;;
55800;SDS011;41730;51.960;20.158;2023-02-20T06:59:03;4.00;;;1.80;;
55800;SDS011;41730;51.960;20.158;2023-02-20T07:01:39;5.30;;;2.20;;
55800;SDS011;41730;51.960;20.158;2023-02-20T07:04:15;7.90;;;2.80;;
55800;SDS011;41730;51.960;20.158;2023-02-20T07:06:48;7.40;;;2.70;;
55800;SDS011;41730;51.960;20.158;2023-02-20T07:09:20;8.10;;;3.20;;
55800;SDS011;41730;51.960;20.158;2023-02-20T07:11:53;11.70;;;3.40;;
55800;SDS011;41730;51.960;20.158;2023-02-20T07:14:25;11.30;;;3.70;;
55800;SDS011;41730;51.960;20.158;2023-02-20T07:16:57;8.10;;;3.40;;
55800;SDS011;41730;51.960;20.158;2023-02-20T07:19:29;8.00;;;2.50;;
55800;SDS011;41730;51.960;20.158;2023-02-20T07:22:01;6.40;;;2.50;;
55800;SDS011;41730;51.960;20.158;2023-02-20T07:24:33;6.80;;;2.80;;
55800;SDS011;41730;51.960;20.158;2023-02-20T07:27:04;9.80;;;2.90;;
55800;SDS011;41730;51.960;20.158;2023-02-20T07:29:37;8.30;;;2.50;;
55800;SDS011;41730;51.960;20.158;2023-02-20T07:32:09;8.20;;;2.60;;
55800;SDS011;41730;51.960;20.158;2023-02-20T07:34:41;10.30;;;3.00;;
55800;SDS011;41730;51.960;20.158;2023-02-20T07:37:30;7.90;;;2.20;;
55800;SDS011;41730;51.960;20.158;2023-02-20T07:40:02;15.60;;;3.80;;
55800;SDS011;41730;51.960;20.158;2023-02-20T07:42:35;8.50;;;2.80;;
55800;SDS011;41730;51.960;20.158;2023-02-20T07:45:09;10.90;;;2.90;;
55800;SDS011;41730;51.960;20.158;2023-02-20T07:47:42;8.70;;;3.10;;
55800;SDS011;41730;51.960;20.158;2023-02-20T07:50:15;7.40;;;2.90;;
55800;SDS011;41730;51.960;20.158;2023-02-20T07:52:47;8.50;;;3.20;;
55800;SDS011;41730;51.960;20.158;2023-02-20T07:55:19;7.00;;;2.70;;
55800;SDS011;41730;51.960;20.158;2023-02-20T07:57:51;8.30;;;2.80;;
55800;SDS011;41730;51.960;20.158;2023-02-20T08:00:25;9.20;;;3.40;;
55800;SDS011;41730;51.960;20.158;2023-02-20T08:02:57;7.40;;;2.90;;
55800;SDS011;41730;51.960;20.158;2023-02-20T08:05:29;8.30;;;3.20;;
55800;SDS011;41730;51.960;20.158;2023-02-20T08:08:16;5.70;;;3.20;;
55800;SDS011;41730;51.960;20.158;2023-02-20T08:10:51;7.10;;;3.70;;
55800;SDS011;41730;51.960;20.158;2023-02-20T08:13:35;10.70;;;3.80;;
55800;SDS011;41730;51.960;20.158;2023-02-20T08:16:07;9.70;;;3.60;;
55800;SDS011;41730;51.960;20.158;2023-02-20T08:18:39;7.70;;;3.60;;
55800;SDS011;41730;51.960;20.158;2023-02-20T08:21:11;8.00;;;3.50;;
55800;SDS011;41730;51.960;20.158;2023-02-20T08:23:43;11.60;;;3.80;;
55800;SDS011;41730;51.960;20.158;2023-02-20T08:26:16;7.70;;;3.30;;
55800;SDS011;41730;51.960;20.158;2023-02-20T08:28:48;13.00;;;4.10;;
55800;SDS011;41730;51.960;20.158;2023-02-20T08:31:21;7.90;;;3.90;;
55800;SDS011;41730;51.960;20.158;2023-02-20T08:34:00;7.20;;;3.90;;
55800;SDS011;41730;51.960;20.158;2023-02-20T08:36:31;9.40;;;4.20;;
55800;SDS011;41730;51.960;20.158;2023-02-20T08:39:03;9.10;;;4.30;;
55800;SDS011;41730;51.960;20.158;2023-02-20T08:41:40;9.40;;;4.30;;
55800;SDS011;41730;51.960;20.158;2023-02-20T08:44:12;13.50;;;5.10;;
55800;SDS011;41730;51.960;20.158;2023-02-20T08:46:48;11.30;;;4.80;;
55800;SDS011;41730;51.960;20.158;2023-02-20T08:49:20;14.10;;;5.40;;
55800;SDS011;41730;51.960;20.158;2023-02-20T08:51:55;9.30;;;4.80;;
55800;SDS011;41730;51.960;20.158;2023-02-20T08:54:27;11.20;;;5.00;;
55800;SDS011;41730;51.960;20.158;2023-02-20T08:56:59;9.50;;;4.70;;
55800;SDS011;41730;51.960;20.158;2023-02-20T08:59:31;14.10;;;4.40;;
55800;SDS011;41730;51.960;20.158;2023-02-20T09:02:04;9.80;;;4.70;;
55800;SDS011;41730;51.960;20.158;2023-02-20T09:04:37;13.50;;;5.00;;
55800;SDS011;41730;51.960;20.158;2023-02-20T09:07:11;11.40;;;4.90;;
55800;SDS011;41730;51.960;20.158;2023-02-20T09:09:43;11.40;;;5.20;;
55800;SDS011;41730;51.960;20.158;2023-02-20T09:12:16;12.10;;;6.00;;
55800;SDS011;41730;51.960;20.158;2023-02-20T09:14:48;13.40;;;6.00;;
55800;SDS011;41730;51.960;20.158;2023-02-20T09:17:20;12.50;;;5.70;;
55800;SDS011;41730;51.960;20.158;2023-02-20T09:19:52;13.60;;;5.90;;
55800;SDS011;41730;51.960;20.158;2023-02-20T09:22:24;11.50;;;5.80;;
55800;SDS011;41730;51.960;20.158;2023-02-20T09:24:56;13.40;;;6.40;;
55800;SDS011;41730;51.960;20.158;2023-02-20T09:27:28;13.30;;;5.80;;
55800;SDS011;41730;51.960;20.158;2023-02-20T09:30:00;13.50;;;5.80;;
55800;SDS011;41730;51.960;20.158;2023-02-20T09:32:32;13.20;;;5.90;;
55800;SDS011;41730;51.960;20.158;2023-02-20T09:35:04;13.10;;;6.30;;
55800;SDS011;41730;51.960;20.158;2023-02-20T09:37:37;12.50;;;6.30;;
55800;SDS011;41730;51.960;20.158;2023-02-20T09:40:09;15.80;;;6.70;;
55800;SDS011;41730;51.960;20.158;2023-02-20T09:42:42;13.20;;;6.60;;
55800;SDS011;41730;51.960;20.158;2023-02-20T09:45:24;16.60;;;7.00;;
55800;SDS011;41730;51.960;20.158;2023-02-20T09:48:11;14.20;;;6.50;;
55800;SDS011;41730;51.960;20.158;2023-02-20T09:50:52;15.30;;;6.60;;
55800;SDS011;41730;51.960;20.158;2023-02-20T09:53:29;13.70;;;7.40;;
55800;SDS011;41730;51.960;20.158;2023-02-20T09:56:04;13.10;;;6.70;;
55800;SDS011;41730;51.960;20.158;2023-02-20T09:58:43;15.60;;;7.10;;
55800;SDS011;41730;51.960;20.158;2023-02-20T10:01:19;15.20;;;7.70;;
55800;SDS011;41730;51.960;20.158;2023-02-20T10:06:25;14.70;;;8.10;;
55800;SDS011;41730;51.960;20.158;2023-02-20T10:08:59;18.80;;;8.40;;
55800;SDS011;41730;51.960;20.158;2023-02-20T10:11:37;15.00;;;8.60;;
55800;SDS011;41730;51.960;20.158;2023-02-20T10:14:31;17.80;;;9.50;;
55800;SDS011;41730;51.960;20.158;2023-02-20T10:17:16;18.80;;;10.10;;
55800;SDS011;41730;51.960;20.158;2023-02-20T10:19:57;17.40;;;9.20;;
55800;SDS011;41730;51.960;20.158;2023-02-20T10:22:41;19.30;;;10.20;;
55800;SDS011;41730;51.960;20.158;2023-02-20T10:25:18;19.20;;;10.70;;
55800;SDS011;41730;51.960;20.158;2023-02-20T10:27:58;16.80;;;9.10;;
55800;SDS011;41730;51.960;20.158;2023-02-20T10:30:35;19.50;;;9.90;;
55800;SDS011;41730;51.960;20.158;2023-02-20T10:33:16;20.40;;;10.50;;
55800;SDS011;41730;51.960;20.158;2023-02-20T10:35:56;18.30;;;10.20;;
55800;SDS011;41730;51.960;20.158;2023-02-20T10:38:37;16.20;;;9.90;;
55800;SDS011;41730;51.960;20.158;2023-02-20T10:41:15;21.70;;;11.00;;
55800;SDS011;41730;51.960;20.158;2023-02-20T10:43:53;19.00;;;9.70;;
55800;SDS011;41730;51.960;20.158;2023-02-20T10:46:31;19.00;;;10.80;;
55800;SDS011;41730;51.960;20.158;2023-02-20T10:49:17;20.00;;;10.90;;
55800;SDS011;41730;51.960;20.158;2023-02-20T10:51:54;21.10;;;11.20;;
55800;SDS011;41730;51.960;20.158;2023-02-20T10:54:32;20.90;;;10.70;;
55800;SDS011;41730;51.960;20.158;2023-02-20T10:57:07;23.00;;;10.70;;
55800;SDS011;41730;51.960;20.158;2023-02-20T10:59:45;21.40;;;10.40;;
55800;SDS011;41730;51.960;20.158;2023-02-20T11:02:23;20.70;;;10.60;;
55800;SDS011;41730;51.960;20.158;2023-02-20T11:04:59;20.40;;;10.50;;
55800;SDS011;41730;51.960;20.158;2023-02-20T11:07:34;21.00;;;11.40;;
55800;SDS011;41730;51.960;20.158;2023-02-20T11:10:07;18.10;;;10.30;;
55800;SDS011;41730;51.960;20.158;2023-02-20T11:12:40;23.10;;;11.30;;
55800;SDS011;41730;51.960;20.158;2023-02-20T11:15:16;20.30;;;10.50;;
55800;SDS011;41730;51.960;20.158;2023-02-20T11:17:51;19.50;;;10.80;;
55800;SDS011;41730;51.960;20.158;2023-02-20T11:20:40;23.60;;;11.50;;
55800;SDS011;41730;51.960;20.158;2023-02-20T11:26:30;21.90;;;11.50;;
55800;SDS011;41730;51.960;20.158;2023-02-20T11:29:05;25.30;;;12.40;;
55800;SDS011;41730;51.960;20.158;2023-02-20T11:31:44;21.20;;;12.00;;
55800;SDS011;41730;51.960;20.158;2023-02-20T11:34:18;26.00;;;12.70;;
55800;SDS011;41730;51.960;20.158;2023-02-20T11:36:52;24.90;;;13.00;;
55800;SDS011;41730;51.960;20.158;2023-02-20T11:39:33;25.10;;;12.20;;
55800;SDS011;41730;51.960;20.158;2023-02-20T11:42:09;25.80;;;13.20;;
55800;SDS011;41730;51.960;20.158;2023-02-20T11:44:44;26.10;;;12.10;;
55800;SDS011;41730;51.960;20.158;2023-02-20T11:47:36;23.60;;;11.50;;
55800;SDS011;41730;51.960;20.158;2023-02-20T11:50:12;23.90;;;12.80;;
55800;SDS011;41730;51.960;20.158;2023-02-20T11:52:58;27.40;;;12.90;;
55800;SDS011;41730;51.960;20.158;2023-02-20T11:55:32;24.00;;;11.30;;
55800;SDS011;41730;51.960;20.158;2023-02-20T11:58:04;24.50;;;12.10;;
55800;SDS011;41730;51.960;20.158;2023-02-20T12:00:50;27.60;;;11.90;;
55800;SDS011;41730;51.960;20.158;2023-02-20T12:03:23;25.00;;;11.40;;
55800;SDS011;41730;51.960;20.158;2023-02-20T12:05:57;24.20;;;12.30;;
55800;SDS011;41730;51.960;20.158;2023-02-20T12:08:38;22.70;;;10.50;;
55800;SDS011;41730;51.960;20.158;2023-02-20T12:11:20;20.80;;;11.30;;
55800;SDS011;41730;51.960;20.158;2023-02-20T12:13:55;23.00;;;12.00;;
55800;SDS011;41730;51.960;20.158;2023-02-20T12:16:40;24.90;;;12.80;;
55800;SDS011;41730;51.960;20.158;2023-02-20T12:19:34;23.00;;;11.00;;
55800;SDS011;41730;51.960;20.158;2023-02-20T12:22:18;25.10;;;11.80;;
55800;SDS011;41730;51.960;20.158;2023-02-20T12:24:57;25.70;;;12.40;;
55800;SDS011;41730;51.960;20.158;2023-02-20T12:27:43;20.80;;;12.00;;
55800;SDS011;41730;51.960;20.158;2023-02-20T12:30:29;21.20;;;11.60;;
55800;SDS011;41730;51.960;20.158;2023-02-20T12:33:15;25.50;;;13.80;;
55800;SDS011;41730;51.960;20.158;2023-02-20T12:36:03;20.40;;;10.90;;
55800;SDS011;41730;51.960;20.158;2023-02-20T12:38:47;25.30;;;12.30;;
55800;SDS011;41730;51.960;20.158;2023-02-20T12:41:26;23.10;;;11.70;;
55800;SDS011;41730;51.960;20.158;2023-02-20T12:44:12;21.30;;;11.50;;
55800;SDS011;41730;51.960;20.158;2023-02-20T12:46:57;23.00;;;11.10;;
55800;SDS011;41730;51.960;20.158;2023-02-20T12:49:46;23.70;;;11.60;;
55800;SDS011;41730;51.960;20.158;2023-02-20T12:55:08;18.00;;;10.30;;
55800;SDS011;41730;51.960;20.158;2023-02-20T12:57:52;18.70;;;10.40;;
55800;SDS011;41730;51.960;20.158;2023-02-20T13:00:37;18.10;;;8.90;;
55800;SDS011;41730;51.960;20.158;2023-02-20T13:03:13;18.10;;;9.20;;
55800;SDS011;41730;51.960;20.158;2023-02-20T13:05:48;18.00;;;9.40;;
55800;SDS011;41730;51.960;20.158;2023-02-20T13:08:21;19.20;;;10.00;;
55800;SDS011;41730;51.960;20.158;2023-02-20T13:10:58;17.50;;;8.60;;
55800;SDS011;41730;51.960;20.158;2023-02-20T13:13:35;17.40;;;9.10;;
55800;SDS011;41730;51.960;20.158;2023-02-20T13:16:16;16.70;;;9.20;;
55800;SDS011;41730;51.960;20.158;2023-02-20T13:18:53;17.80;;;8.70;;
55800;SDS011;41730;51.960;20.158;2023-02-20T13:21:33;17.90;;;8.20;;
55800;SDS011;41730;51.960;20.158;2023-02-20T13:24:27;18.50;;;8.90;;
55800;SDS011;41730;51.960;20.158;2023-02-20T13:27:02;15.40;;;7.80;;
55800;SDS011;41730;51.960;20.158;2023-02-20T13:29:36;14.40;;;8.00;;
55800;SDS011;41730;51.960;20.158;2023-02-20T13:32:24;17.30;;;8.00;;
55800;SDS011;41730;51.960;20.158;2023-02-20T13:38:12;15.90;;;8.20;;
55800;SDS011;41730;51.960;20.158;2023-02-20T13:40:45;17.00;;;8.30;;
55800;SDS011;41730;51.960;20.158;2023-02-20T13:43:36;17.90;;;7.60;;
55800;SDS011;41730;51.960;20.158;2023-02-20T13:46:12;20.40;;;8.00;;
55800;SDS011;41730;51.960;20.158;2023-02-20T13:48:50;18.20;;;8.90;;
55800;SDS011;41730;51.960;20.158;2023-02-20T13:51:31;16.50;;;8.40;;
55800;SDS011;41730;51.960;20.158;2023-02-20T13:54:14;18.90;;;7.80;;
55800;SDS011;41730;51.960;20.158;2023-02-20T13:56:58;14.00;;;7.60;;
55800;SDS011;41730;51.960;20.158;2023-02-20T13:59:41;14.70;;;7.60;;
55800;SDS011;41730;51.960;20.158;2023-02-20T14:02:14;11.10;;;6.40;;
55800;SDS011;41730;51.960;20.158;2023-02-20T14:04:55;13.10;;;6.80;;
55800;SDS011;41730;51.960;20.158;2023-02-20T14:07:31;12.20;;;7.00;;
55800;SDS011;41730;51.960;20.158;2023-02-20T14:10:12;12.90;;;6.80;;
55800;SDS011;41730;51.960;20.158;2023-02-20T14:12:51;15.20;;;6.70;;
55800;SDS011;41730;51.960;20.158;2023-02-20T14:15:24;15.20;;;7.00;;
55800;SDS011;41730;51.960;20.158;2023-02-20T14:17:57;13.10;;;6.60;;
55800;SDS011;41730;51.960;20.158;2023-02-20T14:20:34;16.00;;;7.30;;
55800;SDS011;41730;51.960;20.158;2023-02-20T14:23:08;16.70;;;6.80;;
55800;SDS011;41730;51.960;20.158;2023-02-20T14:25:53;14.00;;;7.10;;
55800;SDS011;41730;51.960;20.158;2023-02-20T14:28:29;14.90;;;7.10;;
55800;SDS011;41730;51.960;20.158;2023-02-20T14:31:05;17.00;;;7.50;;
55800;SDS011;41730;51.960;20.158;2023-02-20T14:33:51;13.20;;;6.70;;
55800;SDS011;41730;51.960;20.158;2023-02-20T14:36:30;14.90;;;6.40;;
55800;SDS011;41730;51.960;20.158;2023-02-20T14:39:12;13.30;;;6.30;;
55800;SDS011;41730;51.960;20.158;2023-02-20T14:41:54;15.20;;;6.30;;
55800;SDS011;41730;51.960;20.158;2023-02-20T14:44:27;13.30;;;6.50;;
55800;SDS011;41730;51.960;20.158;2023-02-20T14:47:02;12.20;;;5.70;;
55800;SDS011;41730;51.960;20.158;2023-02-20T14:49:38;10.80;;;5.30;;
55800;SDS011;41730;51.960;20.158;2023-02-20T14:52:18;8.00;;;4.50;;
55800;SDS011;41730;51.960;20.158;2023-02-20T14:55:00;11.70;;;5.40;;
55800;SDS011;41730;51.960;20.158;2023-02-20T14:57:34;10.40;;;5.20;;
55800;SDS011;41730;51.960;20.158;2023-02-20T15:00:11;10.10;;;4.80;;
55800;SDS011;41730;51.960;20.158;2023-02-20T15:02:54;9.80;;;4.60;;
55800;SDS011;41730;51.960;20.158;2023-02-20T15:05:28;9.00;;;4.80;;
55800;SDS011;41730;51.960;20.158;2023-02-20T15:08:05;16.40;;;8.40;;
55800;SDS011;41730;51.960;20.158;2023-02-20T15:10:51;12.70;;;7.20;;
55800;SDS011;41730;51.960;20.158;2023-02-20T15:13:26;13.70;;;6.60;;
55800;SDS011;41730;51.960;20.158;2023-02-20T15:16:06;8.80;;;4.80;;
55800;SDS011;41730;51.960;20.158;2023-02-20T15:18:46;8.50;;;4.80;;
55800;SDS011;41730;51.960;20.158;2023-02-20T15:21:36;10.00;;;5.50;;
55800;SDS011;41730;51.960;20.158;2023-02-20T15:27:11;11.00;;;4.80;;
55800;SDS011;41730;51.960;20.158;2023-02-20T15:29:45;9.80;;;5.90;;
55800;SDS011;41730;51.960;20.158;2023-02-20T15:32:35;12.50;;;6.90;;
55800;SDS011;41730;51.960;20.158;2023-02-20T15:35:13;8.90;;;5.40;;
55800;SDS011;41730;51.960;20.158;2023-02-20T15:37:47;9.90;;;5.70;;
55800;SDS011;41730;51.960;20.158;2023-02-20T15:40:23;9.30;;;5.80;;
55800;SDS011;41730;51.960;20.158;2023-02-20T15:42:57;8.10;;;4.80;;
55800;SDS011;41730;51.960;20.158;2023-02-20T15:45:39;8.70;;;4.50;;